sensor_id;sensor_type;location;lat;lon;timestamp;P1;durP1;ratioP1;P2;durP2;ratioP2
5414;SDS011;2730;51.512;7.504;2023-02-03T06:02:15;9.50;;;4.45;;
5414;SDS011;2730;51.512;7.504;2023-02-03T06:04:42;10.38;;;4.40;;
5414;SDS011;2730;51.512;7.504;2023-02-03T06:07:09;9.75;;;4.40;;
5414;SDS011;2730;51.512;7.504;2023-02-03T06:09:36;10.50;;;5.80;;
5414;SDS011;2730;51.512;7.504;2023-02-03T06:12:03;12.20;;;4.65;;
5414;SDS011;2730;51.512;7.504;2023-02-03T06:14:30;9.43;;;4.55;;
5414;SDS011;2730;51.512;7.504;2023-02-03T06:16:57;13.20;;;4.93;;
5414;SDS011;2730;51.512;7.504;2023-02-03T06:19:25;12.55;;;3.97;;
5414;SDS011;2730;51.512;7.504;2023-02-03T06:21:52;17.98;;;6.45;;
5414;SDS011;2730;51.512;7.504;2023-02-03T06:24:19;11.48;;;4.00;;
5414;SDS011;2730;51.512;7.504;2023-02-03T06:26:46;10.68;;;4.30;;
5414;SDS011;2730;51.512;7.504;2023-02-03T06:29:12;9.32;;;4.97;;
5414;SDS011;2730;51.512;7.504;2023-02-03T06:31:39;7.50;;;4.53;;
5414;SDS011;2730;51.512;7.504;2023-02-03T06:34:06;8.65;;;4.22;;
5414;SDS011;2730;51.512;7.504;2023-02-03T06:36:35;20.52;;;5.25;;
5414;SDS011;2730;51.512;7.504;2023-02-03T06:39:02;5.63;;;3.50;;
5414;SDS011;2730;51.512;7.504;2023-02-03T06:41:29;10.20;;;4.75;;
5414;SDS011;2730;51.512;7.504;2023-02-03T06:43:56;14.02;;;4.90;;
5414;SDS011;2730;51.512;7.504;2023-02-03T06:46:23;6.78;;;4.63;;
5414;SDS011;2730;51.512;7.504;2023-02-03T06:48:53;8.60;;;4.47;;
5414;SDS011;2730;51.512;7.504;2023-02-03T06:51:20;7.40;;;4.78;;
5414;SDS011;2730;51.512;7.504;2023-02-03T06:53:50;8.60;;;4.95;;
5414;SDS011;2730;51.512;7.504;2023-02-03T06:56:17;9.90;;;5.05;;
5414;SDS011;2730;51.512;7.504;2023-02-03T06:58:44;13.15;;;5.80;;
5414;SDS011;2730;51.512;7.504;2023-02-03T07:01:10;13.40;;;4.97;;
5414;SDS011;2730;51.512;7.504;2023-02-03T07:03:39;10.05;;;6.05;;
5414;SDS011;2730;51.512;7.504;2023-02-03T07:06:06;7.32;;;5.22;;
5414;SDS011;2730;51.512;7.504;2023-02-03T07:08:33;11.98;;;5.65;;
5414;SDS011;2730;51.512;7.504;2023-02-03T07:11:01;10.55;;;5.47;;
5414;SDS011;2730;51.512;7.504;2023-02-03T07:13:28;10.95;;;5.15;;
5414;SDS011;2730;51.512;7.504;2023-02-03T07:15:55;8.20;;;5.70;;
5414;SDS011;2730;51.512;7.504;2023-02-03T07:18:22;14.70;;;5.90;;
5414;SDS011;2730;51.512;7.504;2023-02-03T07:20:50;8.70;;;5.60;;
5414;SDS011;2730;51.512;7.504;2023-02-03T07:23:17;9.75;;;6.13;;
5414;SDS011;2730;51.512;7.504;2023-02-03T07:25:44;21.55;;;6.30;;
5414;SDS011;2730;51.512;7.504;2023-02-03T07:28:12;13.38;;;6.95;;
5414;SDS011;2730;51.512;7.504;2023-02-03T07:30:39;11.10;;;6.45;;
5414;SDS011;2730;51.512;7.504;2023-02-03T07:33:06;11.38;;;6.03;;
5414;SDS011;2730;51.512;7.504;2023-02-03T07:35:33;11.48;;;6.55;;
5414;SDS011;2730;51.512;7.504;2023-02-03T07:38:00;10.77;;;6.00;;
5414;SDS011;2730;51.512;7.504;2023-02-03T07:40:27;17.05;;;7.10;;
5414;SDS011;2730;51.512;7.504;2023-02-03T07:42:54;14.40;;;6.80;;
5414;SDS011;2730;51.512;7.504;2023-02-03T07:45:22;9.35;;;6.47;;
5414;SDS011;2730;51.512;7.504;2023-02-03T07:47:49;13.68;;;7.70;;
5414;SDS011;2730;51.512;7.504;2023-02-03T07:50:17;16.63;;;7.03;;
5414;SDS011;2730;51.512;7.504;2023-02-03T07:52:43;11.95;;;6.95;;
5414;SDS011;2730;51.512;7.504;2023-02-03T07:55:10;10.55;;;6.40;;
5414;SDS011;2730;51.512;7.504;2023-02-03T07:57:37;13.18;;;7.55;;
5414;SDS011;2730;51.512;7.504;2023-02-03T08:00:07;15.85;;;8.43;;
5414;SDS011;2730;51.512;7.504;2023-02-03T08:02:37;10.00;;;7.10;;
5414;SDS011;2730;51.512;7.504;2023-02-03T08:05:04;15.40;;;7.13;;
5414;SDS011;2730;51.512;7.504;2023-02-03T08:07:31;15.90;;;7.25;;
5414;SDS011;2730;51.512;7.504;2023-02-03T08:09:58;20.95;;;7.47;;
5414;SDS011;2730;51.512;7.504;2023-02-03T08:12:25;22.02;;;8.00;;
5414;SDS011;2730;51.512;7.504;2023-02-03T08:14:52;10.07;;;7.95;;
5414;SDS011;2730;51.512;7.504;2023-02-03T08:17:19;12.02;;;8.07;;
5414;SDS011;2730;51.512;7.504;2023-02-03T08:19:47;10.00;;;6.43;;
5414;SDS011;2730;51.512;7.504;2023-02-03T08:22:14;9.95;;;7.18;;
5414;SDS011;2730;51.512;7.504;2023-02-03T08:24:41;12.50;;;8.30;;
5414;SDS011;2730;51.512;7.504;2023-02-03T08:27:09;13.95;;;8.73;;
5414;SDS011;2730;51.512;7.504;2023-02-03T08:29:37;15.02;;;8.88;;
5414;SDS011;2730;51.512;7.504;2023-02-03T08:32:04;17.65;;;8.48;;
5414;SDS011;2730;51.512;7.504;2023-02-03T08:34:34;16.90;;;8.18;;
5414;SDS011;2730;51.512;7.504;2023-02-03T08:37:02;12.13;;;7.40;;
5414;SDS011;2730;51.512;7.504;2023-02-03T08:39:29;9.13;;;6.85;;
5414;SDS011;2730;51.512;7.504;2023-02-03T08:41:56;10.98;;;7.45;;
5414;SDS011;2730;51.512;7.504;2023-02-03T08:44:22;9.05;;;6.90;;
5414;SDS011;2730;51.512;7.504;2023-02-03T08:46:49;13.20;;;6.80;;
5414;SDS011;2730;51.512;7.504;2023-02-03T08:49:17;10.90;;;6.53;;
5414;SDS011;2730;51.512;7.504;2023-02-03T08:51:44;10.88;;;6.72;;
5414;SDS011;2730;51.512;7.504;2023-02-03T08:54:13;12.60;;;6.85;;
5414;SDS011;2730;51.512;7.504;2023-02-03T08:56:40;13.95;;;7.10;;
5414;SDS011;2730;51.512;7.504;2023-02-03T08:59:07;12.10;;;8.10;;
5414;SDS011;2730;51.512;7.504;2023-02-03T09:01:34;14.23;;;7.30;;
5414;SDS011;2730;51.512;7.504;2023-02-03T09:04:01;14.55;;;7.78;;
5414;SDS011;2730;51.512;7.504;2023-02-03T09:06:31;15.02;;;7.38;;
5414;SDS011;2730;51.512;7.504;2023-02-03T09:08:58;8.10;;;6.75;;
5414;SDS011;2730;51.512;7.504;2023-02-03T09:11:26;10.82;;;7.25;;
5414;SDS011;2730;51.512;7.504;2023-02-03T09:13:53;13.38;;;7.28;;
5414;SDS011;2730;51.512;7.504;2023-02-03T09:16:22;20.42;;;8.00;;
5414;SDS011;2730;51.512;7.504;2023-02-03T09:18:50;7.10;;;6.30;;
5414;SDS011;2730;51.512;7.504;2023-02-03T09:21:17;11.82;;;6.88;;
5414;SDS011;2730;51.512;7.504;2023-02-03T09:23:44;9.82;;;6.65;;
5414;SDS011;2730;51.512;7.504;2023-02-03T09:26:11;10.82;;;6.45;;
5414;SDS011;2730;51.512;7.504;2023-02-03T09:28:40;8.63;;;5.90;;
5414;SDS011;2730;51.512;7.504;2023-02-03T09:31:08;12.27;;;6.97;;
5414;SDS011;2730;51.512;7.504;2023-02-03T09:33:37;13.57;;;6.40;;
5414;SDS011;2730;51.512;7.504;2023-02-03T09:36:05;14.50;;;6.57;;
5414;SDS011;2730;51.512;7.504;2023-02-03T09:38:33;11.57;;;6.03;;
5414;SDS011;2730;51.512;7.504;2023-02-03T09:41:01;16.42;;;7.10;;
5414;SDS011;2730;51.512;7.504;2023-02-03T09:43:40;14.00;;;7.80;;
5414;SDS011;2730;51.512;7.504;2023-02-03T09:46:13;11.75;;;7.75;;
5414;SDS011;2730;51.512;7.504;2023-02-03T09:48:45;21.38;;;7.32;;
5414;SDS011;2730;51.512;7.504;2023-02-03T09:51:16;11.70;;;8.90;;
5414;SDS011;2730;51.512;7.504;2023-02-03T09:53:47;10.60;;;7.75;;
5414;SDS011;2730;51.512;7.504;2023-02-03T09:56:21;13.93;;;6.95;;
5414;SDS011;2730;51.512;7.504;2023-02-03T09:58:53;11.63;;;7.60;;
5414;SDS011;2730;51.512;7.504;2023-02-03T10:01:20;15.35;;;7.30;;
5414;SDS011;2730;51.512;7.504;2023-02-03T10:03:51;11.35;;;7.80;;
5414;SDS011;2730;51.512;7.504;2023-02-03T10:06:29;10.10;;;7.22;;
5414;SDS011;2730;51.512;7.504;2023-02-03T10:09:00;23.00;;;7.65;;
5414;SDS011;2730;51.512;7.504;2023-02-03T10:11:37;17.27;;;8.15;;
5414;SDS011;2730;51.512;7.504;2023-02-03T10:14:23;12.57;;;7.85;;
5414;SDS011;2730;51.512;7.504;2023-02-03T10:17:11;18.63;;;7.65;;
5414;SDS011;2730;51.512;7.504;2023-02-03T10:19:48;11.57;;;7.13;;
5414;SDS011;2730;51.512;7.504;2023-02-03T10:22:19;14.35;;;7.32;;
5414;SDS011;2730;51.512;7.504;2023-02-03T10:24:52;15.13;;;7.53;;
5414;SDS011;2730;51.512;7.504;2023-02-03T10:27:24;8.57;;;6.72;;
5414;SDS011;2730;51.512;7.504;2023-02-03T10:29:55;14.15;;;6.57;;
5414;SDS011;2730;51.512;7.504;2023-02-03T10:32:26;19.70;;;7.53;;
5414;SDS011;2730;51.512;7.504;2023-02-03T10:34:53;18.48;;;7.40;;
5414;SDS011;2730;51.512;7.504;2023-02-03T10:37:23;8.60;;;5.85;;
5414;SDS011;2730;51.512;7.504;2023-02-03T10:39:53;13.00;;;7.25;;
5414;SDS011;2730;51.512;7.504;2023-02-03T10:42:21;8.50;;;5.93;;
5414;SDS011;2730;51.512;7.504;2023-02-03T10:44:49;15.57;;;7.80;;
5414;SDS011;2730;51.512;7.504;2023-02-03T10:47:24;10.75;;;7.22;;
5414;SDS011;2730;51.512;7.504;2023-02-03T10:49:59;12.90;;;7.07;;
5414;SDS011;2730;51.512;7.504;2023-02-03T10:52:32;8.57;;;6.10;;
5414;SDS011;2730;51.512;7.504;2023-02-03T10:55:04;13.45;;;5.88;;
5414;SDS011;2730;51.512;7.504;2023-02-03T10:57:34;9.13;;;5.88;;
5414;SDS011;2730;51.512;7.504;2023-02-03T11:00:05;13.02;;;7.20;;
5414;SDS011;2730;51.512;7.504;2023-02-03T11:02:46;15.43;;;5.85;;
5414;SDS011;2730;51.512;7.504;2023-02-03T11:05:21;11.27;;;6.50;;
5414;SDS011;2730;51.512;7.504;2023-02-03T11:07:50;11.05;;;5.97;;
5414;SDS011;2730;51.512;7.504;2023-02-03T11:10:28;12.40;;;6.10;;
5414;SDS011;2730;51.512;7.504;2023-02-03T11:13:19;12.18;;;6.15;;
5414;SDS011;2730;51.512;7.504;2023-02-03T11:15:51;8.35;;;5.53;;
5414;SDS011;2730;51.512;7.504;2023-02-03T11:21:22;13.40;;;5.90;;
5414;SDS011;2730;51.512;7.504;2023-02-03T11:23:54;8.35;;;5.57;;
5414;SDS011;2730;51.512;7.504;2023-02-03T11:26:27;14.45;;;5.53;;
5414;SDS011;2730;51.512;7.504;2023-02-03T11:28:57;11.23;;;5.38;;
5414;SDS011;2730;51.512;7.504;2023-02-03T11:31:27;9.20;;;5.88;;
5414;SDS011;2730;51.512;7.504;2023-02-03T11:33:57;10.15;;;6.30;;
5414;SDS011;2730;51.512;7.504;2023-02-03T11:36:30;11.40;;;6.57;;
5414;SDS011;2730;51.512;7.504;2023-02-03T11:41:44;10.35;;;5.38;;
5414;SDS011;2730;51.512;7.504;2023-02-03T11:44:15;9.73;;;5.50;;
5414;SDS011;2730;51.512;7.504;2023-02-03T11:46:44;18.20;;;7.28;;
5414;SDS011;2730;51.512;7.504;2023-02-03T11:49:19;11.90;;;5.93;;
5414;SDS011;2730;51.512;7.504;2023-02-03T11:52:24;11.73;;;5.18;;
5414;SDS011;2730;51.512;7.504;2023-02-03T11:55:02;8.63;;;5.70;;
5414;SDS011;2730;51.512;7.504;2023-02-03T11:57:39;11.40;;;6.20;;
5414;SDS011;2730;51.512;7.504;2023-02-03T12:00:16;7.97;;;5.75;;
5414;SDS011;2730;51.512;7.504;2023-02-03T12:09:05;14.23;;;5.80;;
5414;SDS011;2730;51.512;7.504;2023-02-03T12:11:49;14.43;;;5.32;;
5414;SDS011;2730;51.512;7.504;2023-02-03T12:14:33;13.38;;;5.50;;
5414;SDS011;2730;51.512;7.504;2023-02-03T12:17:22;11.82;;;4.93;;
5414;SDS011;2730;51.512;7.504;2023-02-03T12:20:13;10.27;;;5.50;;
5414;SDS011;2730;51.512;7.504;2023-02-03T12:23:01;12.80;;;5.28;;
5414;SDS011;2730;51.512;7.504;2023-02-03T12:25:40;8.30;;;5.00;;
5414;SDS011;2730;51.512;7.504;2023-02-03T12:28:20;8.70;;;4.45;;
5414;SDS011;2730;51.512;7.504;2023-02-03T12:31:02;17.33;;;6.25;;
5414;SDS011;2730;51.512;7.504;2023-02-03T12:33:38;14.10;;;5.32;;
5414;SDS011;2730;51.512;7.504;2023-02-03T12:36:10;11.77;;;4.53;;
5414;SDS011;2730;51.512;7.504;2023-02-03T12:38:43;8.55;;;4.60;;
5414;SDS011;2730;51.512;7.504;2023-02-03T12:41:16;12.75;;;5.00;;
5414;SDS011;2730;51.512;7.504;2023-02-03T12:43:47;8.07;;;4.30;;
5414;SDS011;2730;51.512;7.504;2023-02-03T12:46:18;10.93;;;4.35;;
5414;SDS011;2730;51.512;7.504;2023-02-03T12:48:50;6.68;;;4.35;;
5414;SDS011;2730;51.512;7.504;2023-02-03T12:51:25;10.60;;;4.18;;
5414;SDS011;2730;51.512;7.504;2023-02-03T12:54:00;6.47;;;5.00;;
5414;SDS011;2730;51.512;7.504;2023-02-03T12:56:33;6.45;;;4.35;;
5414;SDS011;2730;51.512;7.504;2023-02-03T12:59:05;12.35;;;4.72;;
5414;SDS011;2730;51.512;7.504;2023-02-03T13:01:40;8.93;;;4.28;;
5414;SDS011;2730;51.512;7.504;2023-02-03T13:04:14;6.97;;;4.50;;
5414;SDS011;2730;51.512;7.504;2023-02-03T13:06:47;20.85;;;5.18;;
5414;SDS011;2730;51.512;7.504;2023-02-03T13:09:22;12.57;;;3.67;;
5414;SDS011;2730;51.512;7.504;2023-02-03T13:11:55;13.23;;;6.72;;
5414;SDS011;2730;51.512;7.504;2023-02-03T13:14:30;10.20;;;3.85;;
5414;SDS011;2730;51.512;7.504;2023-02-03T13:17:03;9.10;;;3.22;;
5414;SDS011;2730;51.512;7.504;2023-02-03T13:19:36;8.30;;;3.83;;
5414;SDS011;2730;51.512;7.504;2023-02-03T13:22:09;14.90;;;4.15;;
5414;SDS011;2730;51.512;7.504;2023-02-03T13:24:39;13.88;;;3.90;;
5414;SDS011;2730;51.512;7.504;2023-02-03T13:27:17;9.90;;;3.25;;
5414;SDS011;2730;51.512;7.504;2023-02-03T13:30:02;9.40;;;3.75;;
5414;SDS011;2730;51.512;7.504;2023-02-03T13:32:50;4.65;;;2.90;;
5414;SDS011;2730;51.512;7.504;2023-02-03T13:35:37;19.40;;;4.05;;
5414;SDS011;2730;51.512;7.504;2023-02-03T13:38:23;7.95;;;3.10;;
5414;SDS011;2730;51.512;7.504;2023-02-03T13:41:00;6.18;;;4.05;;
5414;SDS011;2730;51.512;7.504;2023-02-03T13:43:32;6.35;;;2.35;;
5414;SDS011;2730;51.512;7.504;2023-02-03T13:46:01;30.60;;;3.35;;
5414;SDS011;2730;51.512;7.504;2023-02-03T13:48:30;8.27;;;2.70;;
5414;SDS011;2730;51.512;7.504;2023-02-03T13:51:03;11.80;;;2.75;;
5414;SDS011;2730;51.512;7.504;2023-02-03T13:53:32;11.98;;;2.42;;
5414;SDS011;2730;51.512;7.504;2023-02-03T13:56:03;6.75;;;3.10;;
5414;SDS011;2730;51.512;7.504;2023-02-03T13:58:34;11.40;;;2.60;;
5414;SDS011;2730;51.512;7.504;2023-02-03T14:01:04;12.75;;;2.90;;
5414;SDS011;2730;51.512;7.504;2023-02-03T14:03:51;11.43;;;3.42;;
5414;SDS011;2730;51.512;7.504;2023-02-03T14:09:22;20.25;;;3.85;;
5414;SDS011;2730;51.512;7.504;2023-02-03T14:12:15;6.57;;;2.50;;
5414;SDS011;2730;51.512;7.504;2023-02-03T14:15:16;15.27;;;3.20;;
5414;SDS011;2730;51.512;7.504;2023-02-03T14:17:55;13.13;;;3.10;;
5414;SDS011;2730;51.512;7.504;2023-02-03T14:23:22;14.48;;;2.88;;
5414;SDS011;2730;51.512;7.504;2023-02-03T14:25:54;17.05;;;3.20;;
5414;SDS011;2730;51.512;7.504;2023-02-03T14:28:27;10.25;;;3.15;;
5414;SDS011;2730;51.512;7.504;2023-02-03T14:36:35;34.05;;;4.63;;
5414;SDS011;2730;51.512;7.504;2023-02-03T14:42:21;12.05;;;3.42;;
5414;SDS011;2730;51.512;7.504;2023-02-03T14:45:04;8.32;;;3.25;;
5414;SDS011;2730;51.512;7.504;2023-02-03T14:47:48;27.65;;;5.45;;
5414;SDS011;2730;51.512;7.504;2023-02-03T14:50:27;12.02;;;3.00;;
5414;SDS011;2730;51.512;7.504;2023-02-03T14:53:11;13.52;;;3.22;;
5414;SDS011;2730;51.512;7.504;2023-02-03T14:55:50;17.15;;;4.30;;
5414;SDS011;2730;51.512;7.504;2023-02-03T14:58:26;19.88;;;3.70;;
5414;SDS011;2730;51.512;7.504;2023-02-03T15:00:58;19.52;;;4.18;;
5414;SDS011;2730;51.512;7.504;2023-02-03T15:03:26;19.35;;;3.72;;
5414;SDS011;2730;51.512;7.504;2023-02-03T15:05:55;17.73;;;5.10;;
5414;SDS011;2730;51.512;7.504;2023-02-03T15:08:35;15.55;;;3.45;;
5414;SDS011;2730;51.512;7.504;2023-02-03T15:11:15;21.42;;;6.40;;
5414;SDS011;2730;51.512;7.504;2023-02-03T15:13:56;15.02;;;4.18;;
5414;SDS011;2730;51.512;7.504;2023-02-03T15:16:39;14.30;;;3.88;;
5414;SDS011;2730;51.512;7.504;2023-02-03T15:19:13;14.38;;;3.75;;
5414;SDS011;2730;51.512;7.504;2023-02-03T15:21:42;23.63;;;3.72;;
5414;SDS011;2730;51.512;7.504;2023-02-03T15:24:12;22.38;;;3.78;;
5414;SDS011;2730;51.512;7.504;2023-02-03T15:26:46;21.52;;;3.85;;
5414;SDS011;2730;51.512;7.504;2023-02-03T15:29:19;7.65;;;3.45;;
5414;SDS011;2730;51.512;7.504;2023-02-03T15:31:51;18.88;;;3.55;;
5414;SDS011;2730;51.512;7.504;2023-02-03T15:34:32;27.77;;;6.70;;
5414;SDS011;2730;51.512;7.504;2023-02-03T15:37:05;21.02;;;4.45;;
5414;SDS011;2730;51.512;7.504;2023-02-03T15:39:36;25.85;;;4.13;;
5414;SDS011;2730;51.512;7.504;2023-02-03T15:42:08;11.85;;;3.20;;
5414;SDS011;2730;51.512;7.504;2023-02-03T15:44:42;11.52;;;3.72;;
5414;SDS011;2730;51.512;7.504;2023-02-03T15:47:18;19.88;;;3.78;;
5414;SDS011;2730;51.512;7.504;2023-02-03T15:49:50;13.85;;;3.40;;
5414;SDS011;2730;51.512;7.504;2023-02-03T15:52:26;13.70;;;4.43;;
5414;SDS011;2730;51.512;7.504;2023-02-03T15:55:01;18.73;;;4.22;;
5414;SDS011;2730;51.512;7.504;2023-02-03T15:57:33;21.38;;;3.58;;
5414;SDS011;2730;51.512;7.504;2023-02-03T16:00:02;18.48;;;4.13;;
5414;SDS011;2730;51.512;7.504;2023-02-03T16:02:38;32.08;;;4.65;;
5414;SDS011;2730;51.512;7.504;2023-02-03T16:05:12;17.58;;;5.45;;
5414;SDS011;2730;51.512;7.504;2023-02-03T16:07:49;25.30;;;4.00;;
5414;SDS011;2730;51.512;7.504;2023-02-03T16:10:23;16.88;;;3.53;;
5414;SDS011;2730;51.512;7.504;2023-02-03T16:12:52;19.55;;;3.65;;
5414;SDS011;2730;51.512;7.504;2023-02-03T16:15:20;25.10;;;3.22;;
5414;SDS011;2730;51.512;7.504;2023-02-03T16:17:54;16.45;;;4.43;;
5414;SDS011;2730;51.512;7.504;2023-02-03T16:20:23;17.70;;;3.90;;
5414;SDS011;2730;51.512;7.504;2023-02-03T16:23:00;15.73;;;3.28;;
5414;SDS011;2730;51.512;7.504;2023-02-03T16:25:30;16.45;;;3.13;;
5414;SDS011;2730;51.512;7.504;2023-02-03T16:27:58;22.92;;;3.88;;
5414;SDS011;2730;51.512;7.504;2023-02-03T16:30:51;17.63;;;3.20;;
5414;SDS011;2730;51.512;7.504;2023-02-03T16:33:42;17.17;;;3.00;;
5414;SDS011;2730;51.512;7.504;2023-02-03T16:36:27;13.20;;;3.65;;
5414;SDS011;2730;51.512;7.504;2023-02-03T16:39:11;13.70;;;3.78;;
5414;SDS011;2730;51.512;7.504;2023-02-03T16:41:56;19.75;;;4.78;;
5414;SDS011;2730;51.512;7.504;2023-02-03T16:44:41;16.10;;;3.55;;
5414;SDS011;2730;51.512;7.504;2023-02-03T16:47:26;19.05;;;4.85;;
5414;SDS011;2730;51.512;7.504;2023-02-03T16:50:14;21.58;;;4.07;;
5414;SDS011;2730;51.512;7.504;2023-02-03T16:52:59;8.73;;;2.85;;
5414;SDS011;2730;51.512;7.504;2023-02-03T16:55:26;18.50;;;3.10;;
5414;SDS011;2730;51.512;7.504;2023-02-03T16:57:53;7.82;;;2.92;;
5414;SDS011;2730;51.512;7.504;2023-02-03T17:00:20;25.30;;;3.60;;
5414;SDS011;2730;51.512;7.504;2023-02-03T17:02:47;7.53;;;2.85;;
5414;SDS011;2730;51.512;7.504;2023-02-03T17:05:16;23.45;;;3.95;;
5414;SDS011;2730;51.512;7.504;2023-02-03T17:07:43;21.45;;;3.03;;
5414;SDS011;2730;51.512;7.504;2023-02-03T17:10:10;15.95;;;3.13;;
5414;SDS011;2730;51.512;7.504;2023-02-03T17:12:37;17.02;;;3.53;;
5414;SDS011;2730;51.512;7.504;2023-02-03T17:15:04;16.98;;;3.70;;
5414;SDS011;2730;51.512;7.504;2023-02-03T17:17:32;25.30;;;3.85;;
5414;SDS011;2730;51.512;7.504;2023-02-03T17:19:59;17.17;;;3.92;;
5414;SDS011;2730;51.512;7.504;2023-02-03T17:22:27;13.73;;;4.20;;
5414;SDS011;2730;51.512;7.504;2023-02-03T17:24:54;10.52;;;3.35;;
5414;SDS011;2730;51.512;7.504;2023-02-03T17:27:21;19.40;;;3.90;;
5414;SDS011;2730;51.512;7.504;2023-02-03T17:29:48;23.52;;;4.15;;
5414;SDS011;2730;51.512;7.504;2023-02-03T17:32:15;12.65;;;3.40;;
5414;SDS011;2730;51.512;7.504;2023-02-03T17:34:41;21.95;;;4.80;;
5414;SDS011;2730;51.512;7.504;2023-02-03T17:37:09;18.00;;;3.92;;
5414;SDS011;2730;51.512;7.504;2023-02-03T17:39:37;14.10;;;4.15;;
5414;SDS011;2730;51.512;7.504;2023-02-03T17:42:04;20.55;;;4.05;;
5414;SDS011;2730;51.512;7.504;2023-02-03T17:44:32;21.90;;;5.55;;
5414;SDS011;2730;51.512;7.504;2023-02-03T17:47:00;17.60;;;3.50;;
5414;SDS011;2730;51.512;7.504;2023-02-03T17:49:27;23.42;;;3.83;;
5414;SDS011;2730;51.512;7.504;2023-02-03T17:51:53;19.75;;;3.97;;
5414;SDS011;2730;51.512;7.504;2023-02-03T17:54:20;15.98;;;3.22;;
5414;SDS011;2730;51.512;7.504;2023-02-03T17:56:49;7.93;;;3.28;;
5414;SDS011;2730;51.512;7.504;2023-02-03T17:59:16;11.70;;;3.28;;
5414;SDS011;2730;51.512;7.504;2023-02-03T18:01:42;13.10;;;3.25;;
5414;SDS011;2730;51.512;7.504;2023-02-03T18:04:10;19.33;;;3.65;;
5414;SDS011;2730;51.512;7.504;2023-02-03T18:06:37;23.40;;;4.55;;
5414;SDS011;2730;51.512;7.504;2023-02-03T18:09:05;18.52;;;3.63;;
5414;SDS011;2730;51.512;7.504;2023-02-03T18:11:34;12.45;;;3.47;;
5414;SDS011;2730;51.512;7.504;2023-02-03T18:14:03;15.15;;;3.63;;
5414;SDS011;2730;51.512;7.504;2023-02-03T18:16:31;11.98;;;3.22;;
5414;SDS011;2730;51.512;7.504;2023-02-03T18:19:00;10.88;;;4.53;;
5414;SDS011;2730;51.512;7.504;2023-02-03T18:21:28;22.67;;;3.95;;
5414;SDS011;2730;51.512;7.504;2023-02-03T18:23:57;18.13;;;3.10;;
5414;SDS011;2730;51.512;7.504;2023-02-03T18:26:26;9.90;;;3.25;;
5414;SDS011;2730;51.512;7.504;2023-02-03T18:28:56;10.95;;;2.90;;
5414;SDS011;2730;51.512;7.504;2023-02-03T18:31:25;12.95;;;3.95;;
5414;SDS011;2730;51.512;7.504;2023-02-03T18:33:52;14.35;;;2.72;;
5414;SDS011;2730;51.512;7.504;2023-02-03T18:36:19;17.80;;;2.97;;
5414;SDS011;2730;51.512;7.504;2023-02-03T18:38:46;20.13;;;3.45;;
5414;SDS011;2730;51.512;7.504;2023-02-03T18:41:14;17.30;;;4.47;;
5414;SDS011;2730;51.512;7.504;2023-02-03T18:43:43;16.27;;;3.08;;
5414;SDS011;2730;51.512;7.504;2023-02-03T18:46:11;23.10;;;3.55;;
5414;SDS011;2730;51.512;7.504;2023-02-03T18:48:42;11.48;;;3.65;;
5414;SDS011;2730;51.512;7.504;2023-02-03T18:51:10;16.25;;;4.20;;
5414;SDS011;2730;51.512;7.504;2023-02-03T18:53:38;15.68;;;3.17;;
5414;SDS011;2730;51.512;7.504;2023-02-03T18:56:06;15.32;;;3.40;;
5414;SDS011;2730;51.512;7.504;2023-02-03T18:58:35;10.65;;;3.20;;
5414;SDS011;2730;51.512;7.504;2023-02-03T19:01:02;8.93;;;2.80;;
5414;SDS011;2730;51.512;7.504;2023-02-03T19:03:29;18.05;;;3.00;;
5414;SDS011;2730;51.512;7.504;2023-02-03T19:05:57;19.10;;;4.50;;
5414;SDS011;2730;51.512;7.504;2023-02-03T19:08:24;17.48;;;3.80;;
5414;SDS011;2730;51.512;7.504;2023-02-03T19:10:52;23.70;;;3.25;;
5414;SDS011;2730;51.512;7.504;2023-02-03T19:13:19;18.70;;;3.55;;
5414;SDS011;2730;51.512;7.504;2023-02-03T19:15:47;21.67;;;4.15;;
5414;SDS011;2730;51.512;7.504;2023-02-03T19:18:14;12.82;;;3.67;;
5414;SDS011;2730;51.512;7.504;2023-02-03T19:20:41;11.32;;;2.70;;
5414;SDS011;2730;51.512;7.504;2023-02-03T19:23:11;18.25;;;3.55;;
5414;SDS011;2730;51.512;7.504;2023-02-03T19:25:38;23.10;;;5.47;;
5414;SDS011;2730;51.512;7.504;2023-02-03T19:28:05;10.65;;;3.85;;
5414;SDS011;2730;51.512;7.504;2023-02-03T19:30:33;19.05;;;4.47;;
5414;SDS011;2730;51.512;7.504;2023-02-03T19:33:00;18.73;;;3.92;;
5414;SDS011;2730;51.512;7.504;2023-02-03T19:35:27;20.63;;;3.58;;
5414;SDS011;2730;51.512;7.504;2023-02-03T19:37:57;32.80;;;5.10;;
5414;SDS011;2730;51.512;7.504;2023-02-03T19:40:25;18.33;;;4.07;;
5414;SDS011;2730;51.512;7.504;2023-02-03T19:42:52;12.98;;;3.92;;
5414;SDS011;2730;51.512;7.504;2023-02-03T19:45:19;12.55;;;3.58;;
5414;SDS011;2730;51.512;7.504;2023-02-03T19:47:46;17.65;;;3.65;;
5414;SDS011;2730;51.512;7.504;2023-02-03T19:50:13;24.98;;;5.00;;
5414;SDS011;2730;51.512;7.504;2023-02-03T19:52:40;16.73;;;3.38;;
5414;SDS011;2730;51.512;7.504;2023-02-03T19:55:07;20.08;;;6.65;;
5414;SDS011;2730;51.512;7.504;2023-02-03T19:57:35;22.83;;;3.88;;
5414;SDS011;2730;51.512;7.504;2023-02-03T20:00:02;16.38;;;4.28;;
5414;SDS011;2730;51.512;7.504;2023-02-03T20:02:30;26.10;;;3.90;;
5414;SDS011;2730;51.512;7.504;2023-02-03T20:04:57;23.20;;;3.45;;
5414;SDS011;2730;51.512;7.504;2023-02-03T20:07:23;12.80;;;3.63;;
5414;SDS011;2730;51.512;7.504;2023-02-03T20:09:52;23.08;;;3.28;;
5414;SDS011;2730;51.512;7.504;2023-02-03T20:12:19;9.40;;;3.35;;
5414;SDS011;2730;51.512;7.504;2023-02-03T20:14:47;23.92;;;4.95;;
5414;SDS011;2730;51.512;7.504;2023-02-03T20:17:14;19.25;;;4.20;;
5414;SDS011;2730;51.512;7.504;2023-02-03T20:19:40;23.63;;;4.60;;
5414;SDS011;2730;51.512;7.504;2023-02-03T20:22:07;26.20;;;4.30;;
5414;SDS011;2730;51.512;7.504;2023-02-03T20:24:34;17.13;;;3.40;;
5414;SDS011;2730;51.512;7.504;2023-02-03T20:27:01;22.42;;;4.45;;
5414;SDS011;2730;51.512;7.504;2023-02-03T20:29:27;17.67;;;3.75;;
5414;SDS011;2730;51.512;7.504;2023-02-03T20:31:55;14.48;;;3.70;;
5414;SDS011;2730;51.512;7.504;2023-02-03T20:34:22;21.00;;;4.20;;
5414;SDS011;2730;51.512;7.504;2023-02-03T20:36:51;19.33;;;3.83;;
5414;SDS011;2730;51.512;7.504;2023-02-03T20:39:19;17.20;;;4.03;;
5414;SDS011;2730;51.512;7.504;2023-02-03T20:41:46;24.05;;;4.10;;
5414;SDS011;2730;51.512;7.504;2023-02-03T20:44:13;17.52;;;4.05;;
5414;SDS011;2730;51.512;7.504;2023-02-03T20:46:41;17.08;;;3.58;;
5414;SDS011;2730;51.512;7.504;2023-02-03T20:49:10;14.35;;;3.35;;
5414;SDS011;2730;51.512;7.504;2023-02-03T20:51:38;23.10;;;4.07;;
5414;SDS011;2730;51.512;7.504;2023-02-03T20:54:09;11.93;;;3.58;;
5414;SDS011;2730;51.512;7.504;2023-02-03T20:56:40;17.10;;;4.03;;
5414;SDS011;2730;51.512;7.504;2023-02-03T20:59:08;19.90;;;3.70;;
5414;SDS011;2730;51.512;7.504;2023-02-03T21:01:36;13.38;;;4.03;;
5414;SDS011;2730;51.512;7.504;2023-02-03T21:04:05;23.67;;;3.78;;
5414;SDS011;2730;51.512;7.504;2023-02-03T21:06:55;19.35;;;3.75;;
5414;SDS011;2730;51.512;7.504;2023-02-03T21:09:23;13.75;;;4.05;;
5414;SDS011;2730;51.512;7.504;2023-02-03T21:11:51;22.30;;;3.90;;
5414;SDS011;2730;51.512;7.504;2023-02-03T21:14:19;17.70;;;3.40;;
5414;SDS011;2730;51.512;7.504;2023-02-03T21:16:48;19.05;;;4.18;;
5414;SDS011;2730;51.512;7.504;2023-02-03T21:19:19;18.13;;;3.70;;
5414;SDS011;2730;51.512;7.504;2023-02-03T21:21:53;35.17;;;3.65;;
5414;SDS011;2730;51.512;7.504;2023-02-03T21:24:22;23.67;;;3.55;;
5414;SDS011;2730;51.512;7.504;2023-02-03T21:26:50;8.65;;;2.95;;
5414;SDS011;2730;51.512;7.504;2023-02-03T21:29:20;11.55;;;3.45;;
5414;SDS011;2730;51.512;7.504;2023-02-03T21:31:48;8.43;;;2.92;;
5414;SDS011;2730;51.512;7.504;2023-02-03T21:34:19;23.88;;;3.72;;
5414;SDS011;2730;51.512;7.504;2023-02-03T21:36:50;22.92;;;3.47;;
5414;SDS011;2730;51.512;7.504;2023-02-03T21:39:27;22.63;;;2.42;;
5414;SDS011;2730;51.512;7.504;2023-02-03T21:41:55;23.20;;;3.47;;
5414;SDS011;2730;51.512;7.504;2023-02-03T21:44:26;22.25;;;3.67;;
5414;SDS011;2730;51.512;7.504;2023-02-03T21:46:56;15.25;;;3.30;;
5414;SDS011;2730;51.512;7.504;2023-02-03T21:49:26;19.70;;;4.13;;
5414;SDS011;2730;51.512;7.504;2023-02-03T21:51:54;13.13;;;3.28;;
5414;SDS011;2730;51.512;7.504;2023-02-03T21:54:22;13.45;;;2.95;;